EGGDEGJB

Guest
Details From EGGD - Bristol International
To EGJB - Guernsey
Flight Number -
Tags generated
Created
Modified
Stats Distance 117 nm / 217 km
Max Altitude 8,100 ft / 2,469 m
Waypoints 3
Social Downloads 0
Likes 0
Share VATSIM

Download

Looking for another format? Having issues loading an existing format? Contact us
Advertisement - Login to hide

Notes

Basic altitude profile: - Ascent Rate: 2500ft/min - Ascent Speed: 250kts - Cruise Altitude: 20000ft - Cruise Speed: 350kts - Descent Rate: 1500ft/min - Descent Speed: 250kts Options: - Use NATs: yes - Use PACOTS: yes - Use low airways: yes - Use high airways: yes

Route

EGGD VLN EGJB

ID Type Via Altitude Latitude Longitude Leg Dist Tot Dist Heading (true) Name
O EGGD APT - 0 ft / 0 m 51.38266˚ -2.71892˚ - 0 nm - Bristol International
VLN VOR - 8,100 ft / 2,469 m 51.00501˚ -2.63875˚ 22 nm 22 nm 172° / 172° -
O EGJB APT - 0 ft / 0 m 49.43495˚ -2.60197˚ 94 nm 117 nm 179° / 179° Guernsey

Altitude Profile

Advertisement - Login to hide

EGGD

Details ICAO EGGD (BRS)
Name Bristol International
Region United Kingdom
Timezone Europe/London (UTC+0.0)
Stats Elevation 622 ft / 190 m (AMSL)
Location 51.382658° -2.718918°
Runways 1
Magnetic Variation 1.349° W

METAR

EGGD 161250Z AUTO 25010KT 9999 SCT049 06/02 Q1019

Decode

TAF

TAF EGGD 161056Z 1612/1712 28010KT 9999 SCT030 TEMPO 1613/1618 29015G25KT 7000 SHRA BKN012 PROB30 1623/1709 5000 BR BECMG 1700/1703 VRB03KT BECMG 1709/1712 24012KT BKN012 TEMPO 1709/1712 6000 RA BKN006

Decode

Departure Runways

ID Width Length Bearing (true) Bearing (mag) Surface Threshold Offset Overrun Length
09 148 ft / 45 m 6,655 ft / 2,029 m 86.42° 87.77° Asphalt 0 ft / 0 m 0 ft / 0 m
27 148 ft / 45 m 6,655 ft / 2,029 m 266.44° 267.79° Asphalt 499 ft / 152 m 0 ft / 0 m

EGJB

Details ICAO EGJB (GCI)
Name Guernsey
Region United Kingdom
Timezone Europe/Guernsey (UTC+0.0)
Stats Elevation 336 ft / 102 m (AMSL)
Location 49.434955° -2.601970°
Runways 1
Magnetic Variation 1.066° W

METAR

EGJB 161250Z 33009KT 9999 FEW028 08/01 Q1022

Decode

TAF

Not found

Destination Runways

ID Width Length Bearing (true) Bearing (mag) Surface Threshold Offset Overrun Length
09 148 ft / 45 m 4,753 ft / 1,449 m 87.56° 88.63° Asphalt 0 ft / 0 m 0 ft / 0 m
27 148 ft / 45 m 4,753 ft / 1,449 m 267.57° 268.64° Asphalt 0 ft / 0 m 272 ft / 83 m

Approach Navaids

Runway Type Ident Frequency Range Bearing (true) Bearing (mag) Slope Elevation
09 Localiser IUY 108.10 MHz 18 nm / 33 km 87.59° 88.66° - 336 ft / 102 m (AMSL)
09 Glidescope IUY 108.10 MHz 10 nm / 19 km 87.57° 88.63° 3.00° 336 ft / 102 m (AMSL)
27 Localiser IGH 108.10 MHz 18 nm / 33 km 267.57° 268.63° - 336 ft / 102 m (AMSL)
27 Glidescope IGH 108.10 MHz 10 nm / 19 km 267.57° 268.63° 3.00° 336 ft / 102 m (AMSL)
27 DME IGH 108.10 MHz 18 nm / 33 km - - - 336 ft / 102 m (AMSL)

Popular Alternatives